createdAt,value
2018-04-23T00:00:58.745Z,980.27
2018-04-23T00:01:58.722Z,980.27
2018-04-23T00:02:58.661Z,980.27
2018-04-23T00:03:58.634Z,980.30
2018-04-23T00:04:58.635Z,980.27
2018-04-23T00:05:58.557Z,980.27
2018-04-23T00:06:58.582Z,980.26
2018-04-23T00:07:58.491Z,980.23
2018-04-23T00:08:58.445Z,980.26
2018-04-23T00:09:58.412Z,980.28
2018-04-23T00:10:58.425Z,980.25
2018-04-23T00:11:58.353Z,980.24
2018-04-23T00:12:58.297Z,980.24
2018-04-23T00:13:58.295Z,980.24
2018-04-23T00:14:58.265Z,980.20
2018-04-23T00:15:58.240Z,980.21
2018-04-23T00:16:58.183Z,980.22
2018-04-23T00:17:58.147Z,980.22
2018-04-23T00:18:58.110Z,980.18
2018-04-23T00:19:58.071Z,980.19
2018-04-23T00:20:58.041Z,980.18
2018-04-23T00:21:58.183Z,980.18
2018-04-23T00:22:57.973Z,980.18
2018-04-23T00:23:57.941Z,980.14
2018-04-23T00:24:57.883Z,980.16
2018-04-23T00:25:57.929Z,980.14
2018-04-23T00:26:57.809Z,980.13
2018-04-23T00:27:57.772Z,980.13
2018-04-23T00:28:57.738Z,980.15
2018-04-23T00:29:57.698Z,980.16
2018-04-23T00:30:57.673Z,980.14
2018-04-23T00:31:57.644Z,980.15
2018-04-23T00:32:57.622Z,980.15
2018-04-23T00:33:57.567Z,980.15
2018-04-23T00:34:57.555Z,980.16
2018-04-23T00:35:57.491Z,980.11
2018-04-23T00:36:57.455Z,980.15
2018-04-23T00:37:57.436Z,980.10
2018-04-23T00:38:57.382Z,980.12
2018-04-23T00:39:57.361Z,980.13
2018-04-23T00:40:57.343Z,980.10
2018-04-23T00:41:58.092Z,980.08
2018-04-23T00:42:57.272Z,980.11
2018-04-23T00:43:57.368Z,980.10
2018-04-23T00:44:57.169Z,980.10
2018-04-23T00:45:57.158Z,980.09
2018-04-23T00:46:57.135Z,980.08
2018-04-23T00:47:57.053Z,980.10
2018-04-23T00:48:57.046Z,980.11
2018-04-23T00:49:57.000Z,980.10
2018-04-23T00:50:56.954Z,980.11
2018-04-23T00:51:56.939Z,980.07
2018-04-23T00:52:56.882Z,980.10
2018-04-23T00:53:56.864Z,980.09
2018-04-23T00:54:56.828Z,980.12
2018-04-23T00:55:56.778Z,980.07
2018-04-23T00:56:56.741Z,980.08
2018-04-23T00:57:56.733Z,980.11
2018-04-23T00:58:56.655Z,980.07
2018-04-23T00:59:56.636Z,980.12
2018-04-23T01:00:56.579Z,980.09
2018-04-23T01:01:56.581Z,980.07
2018-04-23T01:02:56.513Z,980.12
2018-04-23T01:03:56.493Z,980.08
2018-04-23T01:04:56.438Z,980.13
2018-04-23T01:05:56.403Z,980.11
2018-04-23T01:06:56.398Z,980.09
2018-04-23T01:07:56.335Z,980.05
2018-04-23T01:08:56.297Z,980.07
2018-04-23T01:09:56.285Z,980.05
2018-04-23T01:10:56.285Z,980.06
2018-04-23T01:11:56.293Z,980.01
2018-04-23T01:12:56.160Z,980.03
2018-04-23T01:13:56.156Z,980.08
2018-04-23T01:14:56.081Z,980.02
2018-04-23T01:15:56.088Z,980.01
2018-04-23T01:16:56.071Z,980.04
2018-04-23T01:17:56.039Z,980.02
2018-04-23T01:18:55.943Z,980.03
2018-04-23T01:19:55.898Z,979.97
2018-04-23T01:20:55.874Z,979.96
2018-04-23T01:21:55.880Z,980.00
2018-04-23T01:22:55.823Z,979.97
2018-04-23T01:23:55.781Z,980.01
2018-04-23T01:24:55.782Z,979.96
2018-04-23T01:25:55.690Z,979.95
2018-04-23T01:26:55.675Z,979.90
2018-04-23T01:27:55.620Z,979.91
2018-04-23T01:28:55.589Z,979.91
2018-04-23T01:29:55.604Z,979.92
2018-04-23T01:30:55.547Z,979.95
2018-04-23T01:31:55.459Z,979.96
2018-04-23T01:32:55.457Z,979.95
2018-04-23T01:33:55.453Z,979.97
2018-04-23T01:34:56.100Z,979.98
2018-04-23T01:35:55.311Z,979.98
2018-04-23T01:36:55.340Z,980.03
2018-04-23T01:37:55.245Z,980.03
2018-04-23T01:38:55.269Z,980.01
2018-04-23T01:39:55.163Z,980.02
2018-04-23T01:40:55.165Z,980.03
2018-04-23T01:41:55.127Z,980.05
2018-04-23T01:42:55.082Z,980.05
2018-04-23T01:43:55.051Z,980.05
2018-04-23T01:44:55.013Z,980.05
2018-04-23T01:45:54.974Z,980.04
2018-04-23T01:46:54.918Z,980.09
2018-04-23T01:47:54.919Z,980.06
2018-04-23T01:48:54.873Z,980.05
2018-04-23T01:49:54.837Z,980.09
2018-04-23T01:50:54.781Z,980.12
2018-04-23T01:51:54.740Z,980.10
2018-04-23T01:52:54.703Z,980.11
2018-04-23T01:53:54.654Z,980.10
2018-04-23T01:54:54.682Z,980.15
2018-04-23T01:55:54.597Z,980.10
2018-04-23T01:56:54.561Z,980.14
2018-04-23T01:57:54.543Z,980.14
2018-04-23T01:58:54.490Z,980.14
2018-04-23T01:59:54.502Z,980.20
2018-04-23T02:00:54.450Z,980.20
2018-04-23T02:01:54.376Z,980.16
2018-04-23T02:02:54.333Z,980.18
2018-04-23T02:03:54.334Z,980.20
2018-04-23T02:04:54.281Z,980.17
2018-04-23T02:05:54.235Z,980.18
2018-04-23T02:06:54.209Z,980.15
2018-04-23T02:07:54.171Z,980.15
2018-04-23T02:08:54.140Z,980.22
2018-04-23T02:09:54.071Z,980.17
2018-04-23T02:10:54.081Z,980.17
2018-04-23T02:11:54.006Z,980.21
2018-04-23T02:12:53.981Z,980.18
2018-04-23T02:13:53.923Z,980.19
2018-04-23T02:14:53.939Z,980.20
2018-04-23T02:15:53.857Z,980.16
2018-04-23T02:16:53.821Z,980.18
2018-04-23T02:17:53.806Z,980.18
2018-04-23T02:18:53.733Z,980.22
2018-04-23T02:19:53.724Z,980.20
2018-04-23T02:20:53.707Z,980.18
2018-04-23T02:21:53.643Z,980.18
2018-04-23T02:22:53.621Z,980.21
2018-04-23T02:23:53.578Z,980.21
2018-04-23T02:24:53.516Z,980.21
2018-04-23T02:25:53.584Z,980.24
2018-04-23T02:26:53.452Z,980.24
2018-04-23T02:27:53.422Z,980.23
2018-04-23T02:28:53.371Z,980.23
2018-04-23T02:29:53.378Z,980.20
2018-04-23T02:30:53.322Z,980.23
2018-04-23T02:31:53.260Z,980.23
2018-04-23T02:32:53.321Z,980.23
2018-04-23T02:33:53.203Z,980.25
2018-04-23T02:34:53.149Z,980.25
2018-04-23T02:35:53.123Z,980.25
2018-04-23T02:36:53.069Z,980.26
2018-04-23T02:37:53.620Z,980.30
2018-04-23T02:38:52.994Z,980.30
2018-04-23T02:39:52.985Z,980.31
2018-04-23T02:40:52.942Z,980.30
2018-04-23T02:41:52.887Z,980.33
2018-04-23T02:42:52.860Z,980.33
2018-04-23T02:43:52.824Z,980.28
2018-04-23T02:44:52.794Z,980.33
2018-04-23T02:45:52.809Z,980.38
2018-04-23T02:46:52.774Z,980.34
2018-04-23T02:47:52.690Z,980.37
2018-04-23T02:48:52.627Z,980.37
2018-04-23T02:49:52.614Z,980.38
2018-04-23T02:50:52.558Z,980.37
2018-04-23T02:51:52.535Z,980.39
2018-04-23T02:52:52.477Z,980.36
2018-04-23T02:53:52.448Z,980.34
2018-04-23T02:54:52.468Z,980.32
2018-04-23T02:55:52.393Z,980.31
2018-04-23T02:56:52.342Z,980.32
2018-04-23T02:57:52.301Z,980.32
2018-04-23T02:58:52.270Z,980.29
2018-04-23T02:59:52.226Z,980.29
2018-04-23T03:00:52.184Z,980.29
2018-04-23T03:01:52.144Z,980.28
2018-04-23T03:02:52.169Z,980.27
2018-04-23T03:03:52.098Z,980.27
2018-04-23T03:04:52.036Z,980.22
2018-04-23T03:05:51.989Z,980.24
2018-04-23T03:06:51.978Z,980.24
2018-04-23T03:07:51.950Z,980.25
2018-04-23T03:08:51.957Z,980.20
2018-04-23T03:09:51.867Z,980.19
2018-04-23T03:10:51.910Z,980.19
2018-04-23T03:11:51.793Z,980.18
2018-04-23T03:12:51.743Z,980.20
2018-04-23T03:13:51.713Z,980.21
2018-04-23T03:14:51.696Z,980.18
2018-04-23T03:15:51.628Z,980.17
2018-04-23T03:16:51.590Z,980.18
2018-04-23T03:17:51.675Z,980.16
2018-04-23T03:18:51.535Z,980.18
2018-04-23T03:19:51.485Z,980.14
2018-04-23T03:20:51.444Z,980.15
2018-04-23T03:21:51.433Z,980.15
2018-04-23T03:22:51.387Z,980.12
2018-04-23T03:23:51.353Z,980.13
2018-04-23T03:24:51.323Z,980.16
2018-04-23T03:25:51.276Z,980.13
2018-04-23T03:26:51.257Z,980.18
2018-04-23T03:27:51.211Z,980.15
2018-04-23T03:28:51.147Z,980.14
2018-04-23T03:29:51.116Z,980.12
2018-04-23T03:30:51.097Z,980.15
2018-04-23T03:31:51.061Z,980.19
2018-04-23T03:32:50.995Z,980.19
2018-04-23T03:33:50.963Z,980.16
2018-04-23T03:34:50.947Z,980.21
2018-04-23T03:35:50.884Z,980.20
2018-04-23T03:36:50.865Z,980.19
2018-04-23T03:37:50.849Z,980.21
2018-04-23T03:38:50.802Z,980.21
2018-04-23T03:39:50.744Z,980.25
2018-04-23T03:40:50.765Z,980.22
2018-04-23T03:41:50.704Z,980.23
2018-04-23T03:42:50.645Z,980.22
2018-04-23T03:43:50.589Z,980.22
2018-04-23T03:44:50.585Z,980.25
2018-04-23T03:45:50.513Z,980.21
2018-04-23T03:46:50.496Z,980.21
2018-04-23T03:47:50.463Z,980.25
2018-04-23T03:48:50.420Z,980.17
2018-04-23T03:49:50.383Z,980.20
2018-04-23T03:50:50.386Z,980.22
2018-04-23T03:51:50.313Z,980.23
2018-04-23T03:52:50.372Z,980.20
2018-04-23T03:53:50.221Z,980.22
2018-04-23T03:54:50.176Z,980.20
2018-04-23T03:55:50.203Z,980.22
2018-04-23T03:56:50.143Z,980.21
2018-04-23T03:57:50.077Z,980.22
2018-04-23T03:58:50.083Z,980.21
2018-04-23T03:59:49.994Z,980.20
2018-04-23T04:00:49.965Z,980.21
2018-04-23T04:01:49.942Z,980.20
2018-04-23T04:02:49.903Z,980.21
2018-04-23T04:03:49.856Z,980.21
2018-04-23T04:04:49.806Z,980.21
2018-04-23T04:05:49.771Z,980.18
2018-04-23T04:06:49.747Z,980.20
2018-04-23T04:07:49.726Z,980.17
2018-04-23T04:08:49.840Z,980.22
2018-04-23T04:09:49.769Z,980.17
2018-04-23T04:10:49.632Z,980.19
2018-04-23T04:11:49.601Z,980.19
2018-04-23T04:12:49.527Z,980.18
2018-04-23T04:13:49.526Z,980.20
2018-04-23T04:14:49.449Z,980.19
2018-04-23T04:15:49.412Z,980.23
2018-04-23T04:16:49.388Z,980.22
2018-04-23T04:17:49.336Z,980.22
2018-04-23T04:18:49.281Z,980.22
2018-04-23T04:19:49.243Z,980.24
2018-04-23T04:20:49.228Z,980.27
2018-04-23T04:21:49.186Z,980.26
2018-04-23T04:22:49.135Z,980.27
2018-04-23T04:23:49.118Z,980.32
2018-04-23T04:24:49.071Z,980.30
2018-04-23T04:25:49.029Z,980.30
2018-04-23T04:26:49.032Z,980.32
2018-04-23T04:27:49.001Z,980.29
2018-04-23T04:28:48.939Z,980.31
2018-04-23T04:29:48.888Z,980.29
2018-04-23T04:30:48.875Z,980.28
2018-04-23T04:31:49.649Z,980.32
2018-04-23T04:32:48.786Z,980.32
2018-04-23T04:33:48.750Z,980.30
2018-04-23T04:34:48.742Z,980.31
2018-04-23T04:35:48.722Z,980.31
2018-04-23T04:36:48.643Z,980.32
2018-04-23T04:37:48.645Z,980.35
2018-04-23T04:38:48.571Z,980.32
2018-04-23T04:39:48.520Z,980.36
2018-04-23T04:40:48.529Z,980.34
2018-04-23T04:41:48.499Z,980.35
2018-04-23T04:42:48.409Z,980.37
2018-04-23T04:43:48.404Z,980.39
2018-04-23T04:44:48.363Z,980.36
2018-04-23T04:45:48.306Z,980.36
2018-04-23T04:46:48.373Z,980.36
2018-04-23T04:47:48.261Z,980.36
2018-04-23T04:48:48.208Z,980.39
2018-04-23T04:49:48.148Z,980.41
2018-04-23T04:50:48.124Z,980.40
2018-04-23T04:51:48.166Z,980.41
2018-04-23T04:52:48.073Z,980.43
2018-04-23T04:53:48.024Z,980.43
2018-04-23T04:54:47.985Z,980.44
2018-04-23T04:55:47.951Z,980.45
2018-04-23T04:56:47.944Z,980.49
2018-04-23T04:57:47.921Z,980.39
2018-04-23T04:58:47.839Z,980.42
2018-04-23T04:59:47.796Z,980.44
2018-04-23T05:00:47.785Z,980.45
2018-04-23T05:01:47.756Z,980.45
2018-04-23T05:02:47.685Z,980.46
2018-04-23T05:03:47.665Z,980.45
2018-04-23T05:04:47.643Z,980.45
2018-04-23T05:05:47.607Z,980.45
2018-04-23T05:06:47.570Z,980.45
2018-04-23T05:07:47.519Z,980.44
2018-04-23T05:08:47.481Z,980.46
2018-04-23T05:09:47.504Z,980.46
2018-04-23T05:10:47.404Z,980.51
2018-04-23T05:11:47.391Z,980.51
2018-04-23T05:12:47.334Z,980.46
2018-04-23T05:13:47.345Z,980.45
2018-04-23T05:14:47.305Z,980.45
2018-04-23T05:15:47.271Z,980.45
2018-04-23T05:16:47.201Z,980.49
2018-04-23T05:17:47.229Z,980.48
2018-04-23T05:18:47.128Z,980.47
2018-04-23T05:19:47.088Z,980.47
2018-04-23T05:20:47.051Z,980.47
2018-04-23T05:21:47.040Z,980.51
2018-04-23T05:22:47.066Z,980.51
2018-04-23T05:23:47.004Z,980.52
2018-04-23T05:24:46.961Z,980.53
2018-04-23T05:25:46.923Z,980.51
2018-04-23T05:26:46.852Z,980.53
2018-04-23T05:27:46.848Z,980.55
2018-04-23T05:28:46.773Z,980.52
2018-04-23T05:29:46.746Z,980.53
2018-04-23T05:30:46.712Z,980.60
2018-04-23T05:31:46.672Z,980.66
2018-04-23T05:32:46.641Z,980.72
2018-04-23T05:33:46.687Z,980.77
2018-04-23T05:34:46.605Z,980.79
2018-04-23T05:35:46.604Z,980.85
2018-04-23T05:36:46.509Z,980.80
2018-04-23T05:37:46.491Z,980.82
2018-04-23T05:38:46.432Z,980.84
2018-04-23T05:39:46.413Z,980.83
2018-04-23T05:40:46.360Z,980.86
2018-04-23T05:41:46.325Z,980.86
2018-04-23T05:42:46.321Z,980.86
2018-04-23T05:43:46.256Z,980.88
2018-04-23T05:44:46.233Z,980.93
2018-04-23T05:45:46.193Z,980.89
2018-04-23T05:46:46.179Z,980.89
2018-04-23T05:47:46.230Z,980.88
2018-04-23T05:48:46.112Z,980.86
2018-04-23T05:49:46.050Z,980.84
2018-04-23T05:50:46.036Z,980.90
2018-04-23T05:51:46.007Z,980.87
2018-04-23T05:52:45.957Z,980.87
2018-04-23T05:53:45.925Z,980.91
2018-04-23T05:54:45.905Z,980.90
2018-04-23T05:55:45.871Z,980.88
2018-04-23T05:56:45.817Z,980.88
2018-04-23T05:57:45.803Z,980.90
2018-04-23T05:58:45.752Z,980.89
2018-04-23T05:59:45.728Z,980.97
2018-04-23T06:00:45.822Z,980.99
2018-04-23T06:01:45.647Z,980.96
2018-04-23T06:02:45.636Z,980.96
2018-04-23T06:03:45.587Z,980.94
2018-04-23T06:04:45.547Z,980.97
2018-04-23T06:05:45.585Z,980.93
2018-04-23T06:06:45.477Z,980.94
2018-04-23T06:07:45.465Z,980.91
2018-04-23T06:08:45.525Z,980.93
2018-04-23T06:09:45.434Z,980.90
2018-04-23T06:10:45.367Z,980.91
2018-04-23T06:11:45.374Z,980.96
2018-04-23T06:12:45.284Z,980.93
2018-04-23T06:13:45.274Z,980.91
2018-04-23T06:14:45.217Z,980.93
2018-04-23T06:15:45.232Z,980.91
2018-04-23T06:16:45.162Z,980.88
2018-04-23T06:17:45.134Z,980.93
2018-04-23T06:18:45.103Z,980.92
2018-04-23T06:19:45.082Z,980.93
2018-04-23T06:20:45.041Z,980.99
2018-04-23T06:21:45.020Z,981.01
2018-04-23T06:22:44.971Z,981.00
2018-04-23T06:23:44.959Z,981.00
2018-04-23T06:24:44.928Z,980.98
2018-04-23T06:25:44.878Z,981.00
2018-04-23T06:26:44.940Z,981.00
2018-04-23T06:27:44.805Z,980.98
2018-04-23T06:28:44.777Z,980.93
2018-04-23T06:29:44.752Z,981.00
2018-04-23T06:30:44.717Z,981.00
2018-04-23T06:31:44.686Z,981.04
2018-04-23T06:32:44.665Z,981.06
2018-04-23T06:33:44.609Z,981.10
2018-04-23T06:34:44.596Z,981.10
2018-04-23T06:35:44.549Z,981.08
2018-04-23T06:36:44.555Z,981.05
2018-04-23T06:37:44.494Z,981.08
2018-04-23T06:38:44.485Z,981.04
2018-04-23T06:39:44.417Z,981.08
2018-04-23T06:40:44.383Z,981.10
2018-04-23T06:41:44.453Z,981.14
2018-04-23T06:42:44.327Z,981.11
2018-04-23T06:43:44.289Z,981.12
2018-04-23T06:44:44.299Z,981.05
2018-04-23T06:45:44.250Z,981.10
2018-04-23T06:46:44.203Z,981.13
2018-04-23T06:47:44.178Z,981.13
2018-04-23T06:48:44.177Z,981.13
2018-04-23T06:49:44.097Z,981.18
2018-04-23T06:50:44.073Z,981.17
2018-04-23T06:51:44.069Z,981.15
2018-04-23T06:52:44.030Z,981.15
2018-04-23T06:53:43.985Z,981.11
2018-04-23T06:54:43.958Z,981.13
2018-04-23T06:55:43.922Z,981.09
2018-04-23T06:56:43.903Z,981.09
2018-04-23T06:57:43.889Z,981.12
2018-04-23T06:58:43.821Z,981.19
2018-04-23T06:59:43.873Z,981.18
2018-04-23T07:00:43.798Z,981.26
2018-04-23T07:01:43.777Z,981.25
2018-04-23T07:02:43.722Z,981.28
2018-04-23T07:03:43.703Z,981.33
2018-04-23T07:04:43.680Z,981.35
2018-04-23T07:05:43.620Z,981.32
2018-04-23T07:06:43.571Z,981.31
2018-04-23T07:07:43.552Z,981.29
2018-04-23T07:08:43.523Z,981.28
2018-04-23T07:09:43.517Z,981.31
2018-04-23T07:10:43.469Z,981.31
2018-04-23T07:11:43.435Z,981.34
2018-04-23T07:12:43.452Z,981.32
2018-04-23T07:13:43.394Z,981.38
2018-04-23T07:14:43.353Z,981.45
2018-04-23T07:15:43.369Z,981.40
2018-04-23T07:16:43.298Z,981.38
2018-04-23T07:17:43.299Z,981.39
2018-04-23T07:18:43.273Z,981.43
2018-04-23T07:19:43.172Z,981.36
2018-04-23T07:20:43.166Z,981.35
2018-04-23T07:21:43.138Z,981.36
2018-04-23T07:22:43.090Z,981.31
2018-04-23T07:23:43.072Z,981.36
2018-04-23T07:24:43.055Z,981.34
2018-04-23T07:25:43.005Z,981.36
2018-04-23T07:26:42.999Z,981.36
2018-04-23T07:27:42.957Z,981.34
2018-04-23T07:28:42.936Z,981.34
2018-04-23T07:29:42.952Z,981.38
2018-04-23T07:30:42.899Z,981.34
2018-04-23T07:31:42.850Z,981.34
2018-04-23T07:32:42.799Z,981.38
2018-04-23T07:33:42.771Z,981.39
2018-04-23T07:34:42.756Z,981.42
2018-04-23T07:35:42.724Z,981.40
2018-04-23T07:36:42.704Z,981.40
2018-04-23T07:37:42.665Z,981.43
2018-04-23T07:38:42.677Z,981.41
2018-04-23T07:39:42.612Z,981.40
2018-04-23T07:40:42.653Z,981.44
2018-04-23T07:41:42.553Z,981.43
2018-04-23T07:42:42.526Z,981.42
2018-04-23T07:43:42.504Z,981.42
2018-04-23T07:44:42.468Z,981.46
2018-04-23T07:45:42.433Z,981.47
2018-04-23T07:46:42.417Z,981.43
2018-04-23T07:47:42.382Z,981.47
2018-04-23T07:48:42.363Z,981.43
2018-04-23T07:49:42.333Z,981.44
2018-04-23T07:50:42.299Z,981.46
2018-04-23T07:51:42.273Z,981.43
2018-04-23T07:52:42.267Z,981.44
2018-04-23T07:53:42.250Z,981.46
2018-04-23T07:54:42.216Z,981.49
2018-04-23T07:55:42.186Z,981.45
2018-04-23T07:56:42.191Z,981.44
2018-04-23T07:57:42.141Z,981.44
2018-04-23T07:58:42.104Z,981.42
2018-04-23T07:59:42.109Z,981.43
2018-04-23T08:00:42.076Z,981.46
2018-04-23T08:01:42.040Z,981.45
2018-04-23T08:02:42.013Z,981.48
2018-04-23T08:03:41.983Z,981.48
2018-04-23T08:04:41.986Z,981.49
2018-04-23T08:05:41.949Z,981.50
2018-04-23T08:06:41.989Z,981.50
2018-04-23T08:07:41.886Z,981.58
2018-04-23T08:08:41.865Z,981.61
2018-04-23T08:09:41.900Z,981.57
2018-04-23T08:10:41.802Z,981.57
2018-04-23T08:11:41.809Z,981.51
2018-04-23T08:12:41.772Z,981.48
2018-04-23T08:13:41.736Z,981.48
2018-04-23T08:14:41.714Z,981.58
2018-04-23T08:15:41.683Z,981.55
2018-04-23T08:16:41.648Z,981.56
2018-04-23T08:17:41.627Z,981.51
2018-04-23T08:18:41.614Z,981.55
2018-04-23T08:19:41.619Z,981.57
2018-04-23T08:20:41.550Z,981.52
2018-04-23T08:21:41.532Z,981.54
2018-04-23T08:22:41.486Z,981.55
2018-04-23T08:23:41.489Z,981.51
2018-04-23T08:24:41.446Z,981.51
2018-04-23T08:25:41.411Z,981.51
2018-04-23T08:26:41.394Z,981.46
2018-04-23T08:27:41.353Z,981.45
2018-04-23T08:28:41.351Z,981.42
2018-04-23T08:29:41.308Z,981.40
2018-04-23T08:30:41.287Z,981.42
2018-04-23T08:31:41.281Z,981.40
2018-04-23T08:32:41.300Z,981.40
2018-04-23T08:33:41.211Z,981.44
2018-04-23T08:34:41.161Z,981.43
2018-04-23T08:35:41.166Z,981.45
2018-04-23T08:36:41.122Z,981.50
2018-04-23T08:37:41.108Z,981.46
2018-04-23T08:38:41.078Z,981.45
2018-04-23T08:39:41.046Z,981.45
2018-04-23T08:40:41.047Z,981.45
2018-04-23T08:41:40.996Z,981.45
2018-04-23T08:42:40.995Z,981.46
2018-04-23T08:43:40.946Z,981.44
2018-04-23T08:44:40.907Z,981.44
2018-04-23T08:45:40.883Z,981.44
2018-04-23T08:46:40.846Z,981.48
2018-04-23T08:47:40.822Z,981.57
2018-04-23T08:48:40.876Z,981.64
2018-04-23T08:49:40.860Z,981.64
2018-04-23T08:50:40.758Z,981.64
2018-04-23T08:51:40.726Z,981.70
2018-04-23T08:52:40.708Z,981.63
2018-04-23T08:53:40.667Z,981.63
2018-04-23T08:54:40.666Z,981.61
2018-04-23T08:55:40.651Z,981.64
2018-04-23T08:56:40.622Z,981.55
2018-04-23T08:57:40.655Z,981.54
2018-04-23T08:58:40.593Z,981.54
2018-04-23T08:59:40.516Z,981.51
2018-04-23T09:00:40.540Z,981.53
2018-04-23T09:01:40.460Z,981.54
2018-04-23T09:02:40.418Z,981.57
2018-04-23T09:03:40.405Z,981.59
2018-04-23T09:04:40.378Z,981.61
2018-04-23T09:05:40.439Z,981.58
2018-04-23T09:06:40.311Z,981.58
2018-04-23T09:07:40.276Z,981.59
2018-04-23T09:08:40.262Z,981.63
2018-04-23T09:09:40.230Z,981.63
2018-04-23T09:10:40.217Z,981.61
2018-04-23T09:11:40.188Z,981.66
2018-04-23T09:12:40.150Z,981.67
2018-04-23T09:13:40.175Z,981.72
2018-04-23T09:14:40.078Z,981.73
2018-04-23T09:15:40.057Z,981.78
2018-04-23T09:16:40.064Z,981.79
2018-04-23T09:17:40.003Z,981.87
2018-04-23T09:18:40.012Z,981.90
2018-04-23T09:19:39.933Z,981.96
2018-04-23T09:20:39.911Z,981.98
2018-04-23T09:21:39.952Z,981.99
2018-04-23T09:22:39.844Z,981.98
2018-04-23T09:23:39.823Z,981.99
2018-04-23T09:24:39.816Z,982.03
2018-04-23T09:25:39.782Z,982.02
2018-04-23T09:26:39.757Z,982.02
2018-04-23T09:27:39.759Z,982.01
2018-04-23T09:28:39.697Z,982.02
2018-04-23T09:29:39.666Z,982.07
2018-04-23T09:30:39.732Z,982.05
2018-04-23T09:31:39.740Z,982.06
2018-04-23T09:32:39.596Z,982.08
2018-04-23T09:33:39.644Z,982.09
2018-04-23T09:34:39.554Z,982.11
2018-04-23T09:35:39.486Z,982.14
2018-04-23T09:36:39.482Z,982.11
2018-04-23T09:37:39.432Z,982.08
2018-04-23T09:38:39.402Z,982.06
2018-04-23T09:39:39.372Z,982.06
2018-04-23T09:40:39.338Z,982.02
2018-04-23T09:41:39.391Z,981.97
2018-04-23T09:42:39.296Z,982.03
2018-04-23T09:43:39.256Z,982.00
2018-04-23T09:44:39.283Z,982.00
2018-04-23T09:45:39.197Z,982.01
2018-04-23T09:46:39.163Z,982.03
2018-04-23T09:47:39.167Z,982.04
2018-04-23T09:48:39.131Z,982.04
2018-04-23T09:49:39.104Z,982.06
2018-04-23T09:50:39.069Z,982.08
2018-04-23T09:51:39.023Z,982.05
2018-04-23T09:52:39.013Z,982.09
2018-04-23T09:53:38.977Z,982.05
2018-04-23T09:54:38.972Z,982.06
2018-04-23T09:55:38.913Z,982.10
2018-04-23T09:56:38.891Z,982.08
2018-04-23T09:57:38.869Z,982.09
2018-04-23T09:58:38.874Z,982.07
2018-04-23T09:59:38.801Z,982.06
2018-04-23T10:00:38.772Z,982.04
2018-04-23T10:01:38.755Z,982.05
2018-04-23T10:02:38.733Z,982.01
2018-04-23T10:03:38.698Z,982.02
2018-04-23T10:04:38.663Z,982.03
2018-04-23T10:05:38.650Z,982.02
2018-04-23T10:06:38.601Z,982.01
2018-04-23T10:07:38.592Z,981.97
2018-04-23T10:08:38.563Z,981.94
2018-04-23T10:09:38.516Z,981.97
2018-04-23T10:10:38.517Z,981.95
2018-04-23T10:11:38.539Z,981.94
2018-04-23T10:12:38.429Z,981.94
2018-04-23T10:13:38.425Z,981.91
2018-04-23T10:14:38.410Z,981.90
2018-04-23T10:15:38.362Z,981.87
2018-04-23T10:16:38.346Z,981.88
2018-04-23T10:17:38.304Z,981.89
2018-04-23T10:18:38.318Z,981.84
2018-04-23T10:19:38.266Z,981.79
2018-04-23T10:20:38.215Z,981.82
2018-04-23T10:21:38.184Z,981.78
2018-04-23T10:22:38.187Z,981.77
2018-04-23T10:23:38.165Z,981.81
2018-04-23T10:24:38.118Z,981.77
2018-04-23T10:25:38.109Z,981.76
2018-04-23T10:26:38.063Z,981.75
2018-04-23T10:27:38.184Z,981.77
2018-04-23T10:28:38.031Z,981.78
2018-04-23T10:29:38.100Z,981.79
2018-04-23T10:30:37.942Z,981.78
2018-04-23T10:31:37.924Z,981.80
2018-04-23T10:32:37.897Z,981.85
2018-04-23T10:33:37.863Z,981.77
2018-04-23T10:34:37.846Z,981.77
2018-04-23T10:35:37.820Z,981.75
2018-04-23T10:36:37.783Z,981.76
2018-04-23T10:37:37.764Z,981.72
2018-04-23T10:38:37.733Z,981.70
2018-04-23T10:39:37.702Z,981.79
2018-04-23T10:40:37.718Z,981.78
2018-04-23T10:41:37.669Z,981.76
2018-04-23T10:42:37.659Z,981.70
2018-04-23T10:43:37.608Z,981.77
2018-04-23T10:44:37.596Z,981.69
2018-04-23T10:45:37.558Z,981.72
2018-04-23T10:46:37.527Z,981.72
2018-04-23T10:47:37.527Z,981.67
2018-04-23T10:48:37.480Z,981.64
2018-04-23T10:49:37.484Z,981.63
2018-04-23T10:50:37.431Z,981.65
2018-04-23T10:51:37.455Z,981.69
2018-04-23T10:52:37.412Z,981.68
2018-04-23T10:53:37.384Z,981.77
2018-04-23T10:54:37.360Z,981.76
2018-04-23T10:55:37.303Z,981.74
2018-04-23T10:56:37.279Z,981.71
2018-04-23T10:57:37.274Z,981.70
2018-04-23T10:58:37.234Z,981.74
2018-04-23T10:59:37.200Z,981.72
2018-04-23T11:00:37.188Z,981.71
2018-04-23T11:01:37.156Z,981.70
2018-04-23T11:02:37.143Z,981.68
2018-04-23T11:03:37.115Z,981.73
2018-04-23T11:04:37.083Z,981.67
2018-04-23T11:05:37.051Z,981.69
2018-04-23T11:06:37.036Z,981.71
2018-04-23T11:07:37.019Z,981.75
2018-04-23T11:08:36.992Z,981.75
2018-04-23T11:09:37.019Z,981.75
2018-04-23T11:10:37.017Z,981.73
2018-04-23T11:11:36.931Z,981.74
2018-04-23T11:12:36.881Z,981.72
2018-04-23T11:13:36.842Z,981.70
2018-04-23T11:14:36.817Z,981.72
2018-04-23T11:15:36.796Z,981.71
2018-04-23T11:16:36.787Z,981.73
2018-04-23T11:17:36.774Z,981.71
2018-04-23T11:18:36.725Z,981.67
2018-04-23T11:19:36.678Z,981.65
2018-04-23T11:20:36.682Z,981.65
2018-04-23T11:21:36.631Z,981.61
2018-04-23T11:22:36.663Z,981.63
2018-04-23T11:23:36.590Z,981.63
2018-04-23T11:24:36.551Z,981.67
2018-04-23T11:25:36.529Z,981.62
2018-04-23T11:26:36.503Z,981.65
2018-04-23T11:27:36.481Z,981.65
2018-04-23T11:28:36.439Z,981.67
2018-04-23T11:29:36.428Z,981.73
2018-04-23T11:30:36.406Z,981.73
2018-04-23T11:31:36.362Z,981.68
2018-04-23T11:32:36.352Z,981.73
2018-04-23T11:33:36.309Z,981.75
2018-04-23T11:34:36.799Z,981.77
2018-04-23T11:35:36.289Z,981.74
2018-04-23T11:36:36.224Z,981.80
2018-04-23T11:37:36.225Z,981.77
2018-04-23T11:38:36.190Z,981.79
2018-04-23T11:39:36.200Z,981.82
2018-04-23T11:40:36.121Z,981.76
2018-04-23T11:41:36.179Z,981.74
2018-04-23T11:42:36.084Z,981.78
2018-04-23T11:43:36.050Z,981.75
2018-04-23T11:44:36.053Z,981.77
2018-04-23T11:45:36.060Z,981.78
2018-04-23T11:46:35.981Z,981.76
2018-04-23T11:47:35.951Z,981.73
2018-04-23T11:48:35.976Z,981.72
2018-04-23T11:49:35.891Z,981.77
2018-04-23T11:50:35.859Z,981.77
2018-04-23T11:51:35.839Z,981.78
2018-04-23T11:52:35.808Z,981.78
2018-04-23T11:53:35.787Z,981.72
2018-04-23T11:54:35.768Z,981.67
2018-04-23T11:55:35.741Z,981.69
2018-04-23T11:56:35.713Z,981.66
2018-04-23T11:57:35.704Z,981.63
2018-04-23T11:58:35.668Z,981.65
2018-04-23T11:59:35.679Z,981.65
2018-04-23T12:00:35.648Z,981.65
2018-04-23T12:01:35.582Z,981.64
2018-04-23T12:02:35.547Z,981.70
2018-04-23T12:03:35.551Z,981.56
2018-04-23T12:04:35.521Z,981.54
2018-04-23T12:05:35.474Z,981.58
2018-04-23T12:06:35.503Z,981.65
2018-04-23T12:07:35.421Z,981.53
2018-04-23T12:08:35.403Z,981.57
2018-04-23T12:09:35.384Z,981.56
2018-04-23T12:10:35.346Z,981.59
2018-04-23T12:11:35.318Z,981.53
2018-04-23T12:12:35.296Z,981.52
2018-04-23T12:13:35.254Z,981.55
2018-04-23T12:14:35.254Z,981.55
2018-04-23T12:15:35.216Z,981.56
2018-04-23T12:16:35.183Z,981.59
2018-04-23T12:17:35.181Z,981.62
2018-04-23T12:18:35.182Z,981.66
2018-04-23T12:19:35.205Z,981.66
2018-04-23T12:20:35.091Z,981.55
2018-04-23T12:21:35.069Z,981.50
2018-04-23T12:22:35.035Z,981.45
2018-04-23T12:23:35.018Z,981.44
2018-04-23T12:24:34.986Z,981.50
2018-04-23T12:25:34.970Z,981.59
2018-04-23T12:26:34.947Z,981.53
2018-04-23T12:27:34.916Z,981.48
2018-04-23T12:28:34.901Z,981.46